Gladbrook, Iowa
Current Conditions -  °F | °C
As of 5:05 PM on Saturday 20 Dec 2014 (Local Time) from KMIW Reporting Station
Haze Haze  
Wind Chill: 26°   Ceiling: 400
Heat Index: 32°   Visibility: 3mi
Dew Point: 31°   Wind: 6mph
Humidity: 96%   Direction: 130°SE
Pressure: 30.14"   Gusts: NA
Location:  42.19°N, 92.72°W
Report Text: KMIW 202305Z AUTO 13005KT 3SM BR OVC004 00/M01 A3014 RMK AO2 T00001006
Loading
Personal Weather Stations






























Interactive Weather Map New forecast layout! Learn more

10-Day Weather Forecast

Advertisements
Track Severe Weather on mobile